sensor_id;sensor_type;location;lat;lon;timestamp;pressure;altitude;pressure_sealevel;temperature;humidity
10958;BME280;5531;42.570;23.676;2023-03-19T00:01:35;92418.81;;;1.78;79.04
10958;BME280;5531;42.570;23.676;2023-03-19T00:04:04;92419.63;;;1.79;78.43
10958;BME280;5531;42.570;23.676;2023-03-19T00:06:33;92415.69;;;1.85;76.65
10958;BME280;5531;42.570;23.676;2023-03-19T00:09:02;92410.00;;;1.81;76.05
10958;BME280;5531;42.570;23.676;2023-03-19T00:11:31;92420.31;;;1.71;76.11
10958;BME280;5531;42.570;23.676;2023-03-19T00:14:01;92417.88;;;1.70;75.37
10958;BME280;5531;42.570;23.676;2023-03-19T00:16:30;92412.56;;;1.61;77.21
10958;BME280;5531;42.570;23.676;2023-03-19T00:19:02;92412.97;;;1.67;76.05
10958;BME280;5531;42.570;23.676;2023-03-19T00:21:31;92407.22;;;1.63;75.56
10958;BME280;5531;42.570;23.676;2023-03-19T00:24:00;92404.13;;;1.69;75.34
10958;BME280;5531;42.570;23.676;2023-03-19T00:26:30;92405.88;;;1.69;74.93
10958;BME280;5531;42.570;23.676;2023-03-19T00:29:00;92398.56;;;1.74;75.49
10958;BME280;5531;42.570;23.676;2023-03-19T00:31:30;92395.44;;;1.80;74.78
10958;BME280;5531;42.570;23.676;2023-03-19T00:34:02;92394.34;;;1.82;74.20
10958;BME280;5531;42.570;23.676;2023-03-19T00:39:06;92401.28;;;1.92;73.65
10958;BME280;5531;42.570;23.676;2023-03-19T00:41:35;92397.72;;;1.63;75.94
10958;BME280;5531;42.570;23.676;2023-03-19T00:44:04;92385.22;;;1.59;76.62
10958;BME280;5531;42.570;23.676;2023-03-19T00:46:34;92398.25;;;1.57;76.70
10958;BME280;5531;42.570;23.676;2023-03-19T00:49:05;92388.72;;;1.48;77.82
10958;BME280;5531;42.570;23.676;2023-03-19T00:51:34;92390.72;;;1.35;78.61
10958;BME280;5531;42.570;23.676;2023-03-19T00:54:12;92385.84;;;1.41;78.62
10958;BME280;5531;42.570;23.676;2023-03-19T00:56:41;92389.69;;;1.47;78.09
10958;BME280;5531;42.570;23.676;2023-03-19T00:59:10;92383.69;;;1.46;76.54
10958;BME280;5531;42.570;23.676;2023-03-19T01:01:39;92382.75;;;1.48;76.19
10958;BME280;5531;42.570;23.676;2023-03-19T01:04:11;92380.97;;;1.48;76.25
10958;BME280;5531;42.570;23.676;2023-03-19T01:06:40;92379.09;;;1.40;77.23
10958;BME280;5531;42.570;23.676;2023-03-19T01:09:09;92373.38;;;1.46;77.81
10958;BME280;5531;42.570;23.676;2023-03-19T01:11:38;92372.16;;;1.51;77.32
10958;BME280;5531;42.570;23.676;2023-03-19T01:14:07;92369.84;;;1.57;76.96
10958;BME280;5531;42.570;23.676;2023-03-19T01:16:37;92371.47;;;1.49;76.56
10958;BME280;5531;42.570;23.676;2023-03-19T01:19:06;92373.09;;;1.50;76.58
10958;BME280;5531;42.570;23.676;2023-03-19T01:21:38;92380.44;;;1.44;76.47
10958;BME280;5531;42.570;23.676;2023-03-19T01:24:11;92372.00;;;1.33;77.60
10958;BME280;5531;42.570;23.676;2023-03-19T01:26:40;92370.34;;;1.32;77.31
10958;BME280;5531;42.570;23.676;2023-03-19T01:29:09;92370.34;;;1.32;77.64
10958;BME280;5531;42.570;23.676;2023-03-19T01:31:38;92370.72;;;1.17;79.03
10958;BME280;5531;42.570;23.676;2023-03-19T01:34:07;92359.31;;;1.10;79.80
10958;BME280;5531;42.570;23.676;2023-03-19T01:36:38;92359.97;;;1.12;79.05
10958;BME280;5531;42.570;23.676;2023-03-19T01:39:07;92358.91;;;1.15;80.57
10958;BME280;5531;42.570;23.676;2023-03-19T01:41:36;92361.06;;;1.09;81.90
10958;BME280;5531;42.570;23.676;2023-03-19T01:44:27;92361.19;;;1.08;82.12
10958;BME280;5531;42.570;23.676;2023-03-19T01:46:58;92359.28;;;1.00;83.12
10958;BME280;5531;42.570;23.676;2023-03-19T01:49:30;92360.25;;;1.09;80.87
10958;BME280;5531;42.570;23.676;2023-03-19T01:52:03;92361.16;;;0.98;80.71
10958;BME280;5531;42.570;23.676;2023-03-19T01:54:33;92360.38;;;1.07;80.78
10958;BME280;5531;42.570;23.676;2023-03-19T01:57:06;92359.47;;;1.18;81.18
10958;BME280;5531;42.570;23.676;2023-03-19T01:59:40;92355.22;;;1.07;81.66
10958;BME280;5531;42.570;23.676;2023-03-19T02:02:14;92355.81;;;1.21;83.06
10958;BME280;5531;42.570;23.676;2023-03-19T02:04:45;92353.09;;;1.22;81.71
10958;BME280;5531;42.570;23.676;2023-03-19T02:07:18;92360.72;;;1.24;80.24
10958;BME280;5531;42.570;23.676;2023-03-19T02:09:48;92360.25;;;1.19;78.90
10958;BME280;5531;42.570;23.676;2023-03-19T02:12:17;92367.34;;;1.26;78.40
10958;BME280;5531;42.570;23.676;2023-03-19T02:14:46;92368.72;;;1.31;78.47
10958;BME280;5531;42.570;23.676;2023-03-19T02:17:15;92369.66;;;1.30;78.46
10958;BME280;5531;42.570;23.676;2023-03-19T02:19:49;92377.38;;;1.20;77.98
10958;BME280;5531;42.570;23.676;2023-03-19T02:22:26;92378.75;;;1.14;78.44
10958;BME280;5531;42.570;23.676;2023-03-19T02:25:00;92368.06;;;0.98;78.94
10958;BME280;5531;42.570;23.676;2023-03-19T02:27:33;92378.81;;;0.93;78.68
10958;BME280;5531;42.570;23.676;2023-03-19T02:30:17;92373.06;;;0.59;80.95
10958;BME280;5531;42.570;23.676;2023-03-19T02:32:47;92376.25;;;0.41;81.92
10958;BME280;5531;42.570;23.676;2023-03-19T02:35:16;92372.53;;;0.34;82.58
10958;BME280;5531;42.570;23.676;2023-03-19T02:37:45;92363.88;;;0.35;82.64
10958;BME280;5531;42.570;23.676;2023-03-19T02:40:18;92375.22;;;0.32;82.68
10958;BME280;5531;42.570;23.676;2023-03-19T02:42:51;92376.63;;;0.36;82.58
10958;BME280;5531;42.570;23.676;2023-03-19T02:45:20;92373.44;;;0.44;84.38
10958;BME280;5531;42.570;23.676;2023-03-19T02:47:50;92374.34;;;0.43;84.49
10958;BME280;5531;42.570;23.676;2023-03-19T02:50:19;92364.97;;;0.42;85.42
10958;BME280;5531;42.570;23.676;2023-03-19T02:52:48;92363.84;;;0.56;85.33
10958;BME280;5531;42.570;23.676;2023-03-19T02:55:17;92355.91;;;0.69;85.79
10958;BME280;5531;42.570;23.676;2023-03-19T02:57:46;92369.22;;;0.74;85.62
10958;BME280;5531;42.570;23.676;2023-03-19T03:00:19;92364.34;;;0.81;85.59
10958;BME280;5531;42.570;23.676;2023-03-19T03:02:48;92361.00;;;0.90;84.84
10958;BME280;5531;42.570;23.676;2023-03-19T03:05:17;92367.00;;;1.00;83.34
10958;BME280;5531;42.570;23.676;2023-03-19T03:07:46;92363.53;;;1.11;81.87
10958;BME280;5531;42.570;23.676;2023-03-19T03:10:17;92366.25;;;1.19;80.43
10958;BME280;5531;42.570;23.676;2023-03-19T03:12:49;92363.00;;;1.27;80.41
10958;BME280;5531;42.570;23.676;2023-03-19T03:15:21;92365.59;;;1.37;79.90
10958;BME280;5531;42.570;23.676;2023-03-19T03:17:50;92370.50;;;1.40;78.91
10958;BME280;5531;42.570;23.676;2023-03-19T03:20:21;92364.41;;;1.41;78.72
10958;BME280;5531;42.570;23.676;2023-03-19T03:22:50;92368.44;;;1.24;78.87
10958;BME280;5531;42.570;23.676;2023-03-19T03:25:19;92361.91;;;1.20;78.90
10958;BME280;5531;42.570;23.676;2023-03-19T03:27:48;92368.78;;;1.00;79.01
10958;BME280;5531;42.570;23.676;2023-03-19T03:30:20;92363.59;;;0.90;81.53
10958;BME280;5531;42.570;23.676;2023-03-19T03:32:49;92368.88;;;0.88;81.61
10958;BME280;5531;42.570;23.676;2023-03-19T03:35:19;92363.56;;;0.80;82.26
10958;BME280;5531;42.570;23.676;2023-03-19T03:37:48;92369.34;;;0.72;79.97
10958;BME280;5531;42.570;23.676;2023-03-19T03:40:18;92371.41;;;0.79;79.58
10958;BME280;5531;42.570;23.676;2023-03-19T03:42:47;92373.41;;;0.65;80.26
10958;BME280;5531;42.570;23.676;2023-03-19T03:45:16;92380.41;;;0.63;80.70
10958;BME280;5531;42.570;23.676;2023-03-19T03:47:47;92387.09;;;0.66;80.38
10958;BME280;5531;42.570;23.676;2023-03-19T03:50:17;92383.13;;;0.62;79.35
10958;BME280;5531;42.570;23.676;2023-03-19T03:52:46;92394.56;;;0.69;79.06
10958;BME280;5531;42.570;23.676;2023-03-19T03:55:15;92395.25;;;0.71;79.27
10958;BME280;5531;42.570;23.676;2023-03-19T03:57:44;92386.59;;;0.72;79.01
10958;BME280;5531;42.570;23.676;2023-03-19T04:00:14;92401.53;;;0.78;78.49
10958;BME280;5531;42.570;23.676;2023-03-19T04:02:44;92399.78;;;0.79;78.74
10958;BME280;5531;42.570;23.676;2023-03-19T04:05:16;92400.47;;;0.81;79.64
10958;BME280;5531;42.570;23.676;2023-03-19T04:07:45;92410.91;;;0.79;79.25
10958;BME280;5531;42.570;23.676;2023-03-19T04:10:14;92412.28;;;0.83;78.78
10958;BME280;5531;42.570;23.676;2023-03-19T04:12:43;92407.56;;;0.88;78.81
10958;BME280;5531;42.570;23.676;2023-03-19T04:15:12;92410.78;;;0.81;79.07
10958;BME280;5531;42.570;23.676;2023-03-19T04:17:41;92405.03;;;0.67;80.17
10958;BME280;5531;42.570;23.676;2023-03-19T04:20:11;92405.47;;;0.51;80.32
10958;BME280;5531;42.570;23.676;2023-03-19T04:22:43;92411.06;;;0.57;79.87
10958;BME280;5531;42.570;23.676;2023-03-19T04:25:13;92410.00;;;0.59;80.03
10958;BME280;5531;42.570;23.676;2023-03-19T04:27:41;92410.06;;;0.27;82.84
10958;BME280;5531;42.570;23.676;2023-03-19T04:30:11;92409.31;;;0.15;83.72
10958;BME280;5531;42.570;23.676;2023-03-19T04:32:40;92415.63;;;0.11;83.61
10958;BME280;5531;42.570;23.676;2023-03-19T04:35:10;92413.00;;;0.01;83.97
10958;BME280;5531;42.570;23.676;2023-03-19T04:37:39;92412.75;;;0.04;85.62
10958;BME280;5531;42.570;23.676;2023-03-19T04:40:12;92414.47;;;0.15;84.16
10958;BME280;5531;42.570;23.676;2023-03-19T04:42:41;92420.75;;;0.22;82.75
10958;BME280;5531;42.570;23.676;2023-03-19T04:45:11;92421.78;;;0.20;83.97
10958;BME280;5531;42.570;23.676;2023-03-19T04:47:40;92428.09;;;0.27;85.79
10958;BME280;5531;42.570;23.676;2023-03-19T04:50:10;92423.25;;;0.33;86.44
10958;BME280;5531;42.570;23.676;2023-03-19T04:52:39;92433.56;;;0.33;87.79
10958;BME280;5531;42.570;23.676;2023-03-19T04:55:11;92422.88;;;0.38;86.95
10958;BME280;5531;42.570;23.676;2023-03-19T04:57:40;92419.94;;;0.43;88.51
10958;BME280;5531;42.570;23.676;2023-03-19T05:00:11;92424.56;;;0.49;87.72
10958;BME280;5531;42.570;23.676;2023-03-19T05:02:41;92425.09;;;0.43;87.30
10958;BME280;5531;42.570;23.676;2023-03-19T05:05:10;92430.94;;;0.45;85.39
10958;BME280;5531;42.570;23.676;2023-03-19T05:07:40;92421.81;;;0.41;86.47
10958;BME280;5531;42.570;23.676;2023-03-19T05:10:12;92425.16;;;0.52;86.08
10958;BME280;5531;42.570;23.676;2023-03-19T05:12:42;92422.19;;;0.57;85.98
10958;BME280;5531;42.570;23.676;2023-03-19T05:15:11;92418.78;;;0.57;86.22
10958;BME280;5531;42.570;23.676;2023-03-19T05:17:40;92421.53;;;0.65;85.40
10958;BME280;5531;42.570;23.676;2023-03-19T05:20:10;92416.69;;;0.71;86.52
10958;BME280;5531;42.570;23.676;2023-03-19T05:22:40;92422.75;;;0.82;84.87
10958;BME280;5531;42.570;23.676;2023-03-19T05:25:12;92426.97;;;0.93;83.70
10958;BME280;5531;42.570;23.676;2023-03-19T05:27:41;92421.81;;;0.93;83.14
10958;BME280;5531;42.570;23.676;2023-03-19T05:30:11;92426.91;;;1.04;84.54
10958;BME280;5531;42.570;23.676;2023-03-19T05:32:42;92420.66;;;1.06;84.68
10958;BME280;5531;42.570;23.676;2023-03-19T05:35:11;92427.59;;;1.16;84.27
10958;BME280;5531;42.570;23.676;2023-03-19T05:37:42;92422.59;;;1.14;84.15
10958;BME280;5531;42.570;23.676;2023-03-19T05:40:14;92425.44;;;1.11;83.68
10958;BME280;5531;42.570;23.676;2023-03-19T05:42:43;92427.66;;;1.25;85.29
10958;BME280;5531;42.570;23.676;2023-03-19T05:45:12;92417.53;;;1.43;84.24
10958;BME280;5531;42.570;23.676;2023-03-19T05:47:42;92425.00;;;1.56;84.04
10958;BME280;5531;42.570;23.676;2023-03-19T05:50:11;92429.78;;;1.61;82.45
10958;BME280;5531;42.570;23.676;2023-03-19T05:52:40;92431.72;;;1.69;82.56
10958;BME280;5531;42.570;23.676;2023-03-19T05:55:09;92424.91;;;1.77;82.57
10958;BME280;5531;42.570;23.676;2023-03-19T05:57:41;92424.00;;;1.88;81.67
10958;BME280;5531;42.570;23.676;2023-03-19T06:00:11;92428.78;;;2.03;81.70
10958;BME280;5531;42.570;23.676;2023-03-19T06:02:41;92420.19;;;2.12;81.27
10958;BME280;5531;42.570;23.676;2023-03-19T06:05:10;92425.09;;;2.25;80.11
10958;BME280;5531;42.570;23.676;2023-03-19T06:07:39;92428.63;;;2.33;78.21
10958;BME280;5531;42.570;23.676;2023-03-19T06:10:09;92424.66;;;2.49;78.37
10958;BME280;5531;42.570;23.676;2023-03-19T06:12:42;92425.88;;;2.64;77.38
10958;BME280;5531;42.570;23.676;2023-03-19T06:15:11;92430.78;;;2.67;77.12
10958;BME280;5531;42.570;23.676;2023-03-19T06:17:40;92429.91;;;2.86;76.99
10958;BME280;5531;42.570;23.676;2023-03-19T06:20:11;92428.13;;;2.97;74.43
10958;BME280;5531;42.570;23.676;2023-03-19T06:22:40;92433.81;;;3.00;74.31
10958;BME280;5531;42.570;23.676;2023-03-19T06:25:09;92428.88;;;3.17;73.80
10958;BME280;5531;42.570;23.676;2023-03-19T06:27:41;92439.91;;;3.09;72.50
10958;BME280;5531;42.570;23.676;2023-03-19T06:30:11;92438.75;;;3.31;72.93
10958;BME280;5531;42.570;23.676;2023-03-19T06:32:41;92434.34;;;3.41;71.80
10958;BME280;5531;42.570;23.676;2023-03-19T06:35:10;92441.09;;;3.62;73.08
10958;BME280;5531;42.570;23.676;2023-03-19T06:37:39;92439.91;;;3.74;70.61
10958;BME280;5531;42.570;23.676;2023-03-19T06:40:09;92440.47;;;3.68;70.03
10958;BME280;5531;42.570;23.676;2023-03-19T06:42:43;92446.72;;;3.75;70.19
10958;BME280;5531;42.570;23.676;2023-03-19T06:45:12;92449.06;;;3.96;68.51
10958;BME280;5531;42.570;23.676;2023-03-19T06:47:43;92446.09;;;3.91;69.14
10958;BME280;5531;42.570;23.676;2023-03-19T06:50:13;92444.84;;;4.13;69.98
10958;BME280;5531;42.570;23.676;2023-03-19T06:52:43;92451.47;;;4.26;67.82
10958;BME280;5531;42.570;23.676;2023-03-19T06:55:12;92447.75;;;4.28;66.98
10958;BME280;5531;42.570;23.676;2023-03-19T06:57:47;92450.91;;;4.22;65.53
10958;BME280;5531;42.570;23.676;2023-03-19T07:00:17;92457.31;;;4.46;66.40
10958;BME280;5531;42.570;23.676;2023-03-19T07:02:47;92449.88;;;4.69;68.21
10958;BME280;5531;42.570;23.676;2023-03-19T07:05:16;92447.91;;;4.89;68.80
10958;BME280;5531;42.570;23.676;2023-03-19T07:07:45;92446.09;;;5.07;67.15
10958;BME280;5531;42.570;23.676;2023-03-19T07:10:15;92446.19;;;5.24;66.22
10958;BME280;5531;42.570;23.676;2023-03-19T07:12:50;92444.84;;;5.20;63.69
10958;BME280;5531;42.570;23.676;2023-03-19T07:15:19;92441.69;;;5.34;64.79
10958;BME280;5531;42.570;23.676;2023-03-19T07:17:48;92453.97;;;5.50;64.35
10958;BME280;5531;42.570;23.676;2023-03-19T07:20:18;92451.59;;;5.65;62.87
10958;BME280;5531;42.570;23.676;2023-03-19T07:22:48;92447.28;;;5.82;62.40
10958;BME280;5531;42.570;23.676;2023-03-19T07:25:18;92454.44;;;5.88;61.87
10958;BME280;5531;42.570;23.676;2023-03-19T07:27:49;92459.13;;;5.84;61.81
10958;BME280;5531;42.570;23.676;2023-03-19T07:30:19;92446.53;;;6.06;61.00
10958;BME280;5531;42.570;23.676;2023-03-19T07:32:48;92440.09;;;6.18;62.15
10958;BME280;5531;42.570;23.676;2023-03-19T07:35:17;92448.88;;;6.26;60.32
10958;BME280;5531;42.570;23.676;2023-03-19T07:37:46;92450.84;;;6.40;60.09
10958;BME280;5531;42.570;23.676;2023-03-19T07:40:15;92456.91;;;6.49;60.49
10958;BME280;5531;42.570;23.676;2023-03-19T07:42:44;92452.34;;;6.67;60.36
10958;BME280;5531;42.570;23.676;2023-03-19T07:45:16;92446.81;;;6.78;59.91
10958;BME280;5531;42.570;23.676;2023-03-19T07:47:45;92447.28;;;6.98;61.77
10958;BME280;5531;42.570;23.676;2023-03-19T07:50:16;92447.13;;;7.08;60.41
10958;BME280;5531;42.570;23.676;2023-03-19T07:52:45;92449.56;;;7.10;58.31
10958;BME280;5531;42.570;23.676;2023-03-19T07:55:16;92447.13;;;7.00;58.68
10958;BME280;5531;42.570;23.676;2023-03-19T07:57:46;92443.56;;;7.01;58.68
10958;BME280;5531;42.570;23.676;2023-03-19T08:00:18;92450.53;;;7.17;59.19
10958;BME280;5531;42.570;23.676;2023-03-19T08:02:47;92449.38;;;7.28;58.96
10958;BME280;5531;42.570;23.676;2023-03-19T08:05:16;92448.88;;;7.32;62.03
10958;BME280;5531;42.570;23.676;2023-03-19T08:07:45;92440.72;;;7.36;60.38
10958;BME280;5531;42.570;23.676;2023-03-19T08:10:16;92450.44;;;7.58;62.90
10958;BME280;5531;42.570;23.676;2023-03-19T08:12:45;92444.38;;;7.66;62.85
10958;BME280;5531;42.570;23.676;2023-03-19T08:15:17;92444.34;;;7.82;62.96
10958;BME280;5531;42.570;23.676;2023-03-19T08:17:46;92446.94;;;7.82;61.93
10958;BME280;5531;42.570;23.676;2023-03-19T08:20:15;92448.56;;;7.83;60.85
10958;BME280;5531;42.570;23.676;2023-03-19T08:22:48;92447.22;;;7.96;61.77
10958;BME280;5531;42.570;23.676;2023-03-19T08:25:18;92449.13;;;8.10;60.64
10958;BME280;5531;42.570;23.676;2023-03-19T08:27:47;92450.94;;;8.33;61.53
10958;BME280;5531;42.570;23.676;2023-03-19T08:30:19;92457.78;;;8.34;57.80
10958;BME280;5531;42.570;23.676;2023-03-19T08:32:48;92462.53;;;8.30;58.52
10958;BME280;5531;42.570;23.676;2023-03-19T08:35:18;92456.44;;;8.06;59.08
10958;BME280;5531;42.570;23.676;2023-03-19T08:37:47;92444.22;;;7.67;60.54
10958;BME280;5531;42.570;23.676;2023-03-19T08:40:16;92448.47;;;7.60;62.02
10958;BME280;5531;42.570;23.676;2023-03-19T08:42:45;92441.28;;;7.62;62.12
10958;BME280;5531;42.570;23.676;2023-03-19T08:45:15;92443.91;;;7.62;59.59
10958;BME280;5531;42.570;23.676;2023-03-19T08:47:47;92446.47;;;7.70;59.81
10958;BME280;5531;42.570;23.676;2023-03-19T08:50:17;92435.88;;;7.72;60.25
10958;BME280;5531;42.570;23.676;2023-03-19T08:52:46;92445.81;;;7.77;61.43
10958;BME280;5531;42.570;23.676;2023-03-19T08:55:15;92438.97;;;7.84;64.57
10958;BME280;5531;42.570;23.676;2023-03-19T08:57:44;92437.00;;;7.86;60.16
10958;BME280;5531;42.570;23.676;2023-03-19T09:00:15;92445.72;;;8.01;63.09
10958;BME280;5531;42.570;23.676;2023-03-19T09:02:47;92441.00;;;7.97;59.70
10958;BME280;5531;42.570;23.676;2023-03-19T09:05:16;92434.94;;;8.04;60.83
10958;BME280;5531;42.570;23.676;2023-03-19T09:07:47;92429.22;;;8.09;62.52
10958;BME280;5531;42.570;23.676;2023-03-19T09:10:17;92438.53;;;8.03;62.49
10958;BME280;5531;42.570;23.676;2023-03-19T09:12:46;92440.81;;;7.98;61.18
10958;BME280;5531;42.570;23.676;2023-03-19T09:15:16;92433.84;;;7.99;60.54
10958;BME280;5531;42.570;23.676;2023-03-19T09:17:47;92434.38;;;8.17;60.29
10958;BME280;5531;42.570;23.676;2023-03-19T09:20:16;92424.81;;;8.33;59.45
10958;BME280;5531;42.570;23.676;2023-03-19T09:22:47;92420.53;;;8.48;59.72
10958;BME280;5531;42.570;23.676;2023-03-19T09:25:16;92424.81;;;8.64;60.40
10958;BME280;5531;42.570;23.676;2023-03-19T09:27:45;92418.19;;;8.76;59.12
10958;BME280;5531;42.570;23.676;2023-03-19T09:30:14;92420.03;;;8.91;59.26
10958;BME280;5531;42.570;23.676;2023-03-19T09:32:43;92414.66;;;9.07;63.90
10958;BME280;5531;42.570;23.676;2023-03-19T09:35:15;92426.84;;;9.15;59.94
10958;BME280;5531;42.570;23.676;2023-03-19T09:37:44;92423.44;;;9.14;59.82
10958;BME280;5531;42.570;23.676;2023-03-19T09:40:20;92417.19;;;9.15;59.12
10958;BME280;5531;42.570;23.676;2023-03-19T09:43:02;92415.25;;;9.17;58.25
10958;BME280;5531;42.570;23.676;2023-03-19T09:45:34;92414.69;;;9.22;56.39
10958;BME280;5531;42.570;23.676;2023-03-19T09:48:06;92417.03;;;9.32;58.25
10958;BME280;5531;42.570;23.676;2023-03-19T09:50:40;92410.03;;;9.47;57.59
10958;BME280;5531;42.570;23.676;2023-03-19T09:53:15;92408.47;;;9.68;60.89
10958;BME280;5531;42.570;23.676;2023-03-19T09:55:48;92413.72;;;9.83;62.11
10958;BME280;5531;42.570;23.676;2023-03-19T09:58:20;92405.78;;;9.91;57.29
10958;BME280;5531;42.570;23.676;2023-03-19T10:00:52;92407.66;;;9.97;56.60
10958;BME280;5531;42.570;23.676;2023-03-19T10:03:30;92405.75;;;10.06;56.26
10958;BME280;5531;42.570;23.676;2023-03-19T10:06:20;92402.47;;;10.19;57.58
10958;BME280;5531;42.570;23.676;2023-03-19T10:09:09;92400.28;;;10.22;58.16
10958;BME280;5531;42.570;23.676;2023-03-19T10:11:51;92397.69;;;10.22;56.40
10958;BME280;5531;42.570;23.676;2023-03-19T10:14:41;92393.81;;;10.33;55.55
10958;BME280;5531;42.570;23.676;2023-03-19T10:17:14;92394.31;;;10.43;55.99
10958;BME280;5531;42.570;23.676;2023-03-19T10:19:47;92392.00;;;10.34;56.90
10958;BME280;5531;42.570;23.676;2023-03-19T10:22:26;92395.47;;;10.41;56.88
10958;BME280;5531;42.570;23.676;2023-03-19T10:24:58;92386.81;;;10.40;58.79
10958;BME280;5531;42.570;23.676;2023-03-19T10:27:28;92385.88;;;10.48;58.97
10958;BME280;5531;42.570;23.676;2023-03-19T10:29:58;92386.13;;;10.53;57.40
10958;BME280;5531;42.570;23.676;2023-03-19T10:32:34;92382.25;;;10.49;55.86
10958;BME280;5531;42.570;23.676;2023-03-19T10:35:11;92377.06;;;10.56;56.63
10958;BME280;5531;42.570;23.676;2023-03-19T10:37:47;92376.16;;;10.63;54.87
10958;BME280;5531;42.570;23.676;2023-03-19T10:40:21;92370.28;;;10.61;56.39
10958;BME280;5531;42.570;23.676;2023-03-19T10:43:03;92377.84;;;10.71;55.33
10958;BME280;5531;42.570;23.676;2023-03-19T10:45:35;92365.44;;;10.87;58.98
10958;BME280;5531;42.570;23.676;2023-03-19T10:48:05;92373.44;;;11.00;55.05
10958;BME280;5531;42.570;23.676;2023-03-19T10:50:45;92361.13;;;11.00;58.26
10958;BME280;5531;42.570;23.676;2023-03-19T10:53:28;92360.72;;;10.97;56.97
10958;BME280;5531;42.570;23.676;2023-03-19T10:56:01;92367.75;;;10.96;55.36
10958;BME280;5531;42.570;23.676;2023-03-19T10:58:32;92361.00;;;11.09;56.56
10958;BME280;5531;42.570;23.676;2023-03-19T11:01:04;92360.19;;;11.08;55.16
10958;BME280;5531;42.570;23.676;2023-03-19T11:03:35;92358.00;;;11.12;58.93
10958;BME280;5531;42.570;23.676;2023-03-19T11:06:15;92352.56;;;11.13;55.74
10958;BME280;5531;42.570;23.676;2023-03-19T11:08:55;92352.00;;;11.18;56.16
10958;BME280;5531;42.570;23.676;2023-03-19T11:11:30;92349.56;;;11.16;56.10
10958;BME280;5531;42.570;23.676;2023-03-19T11:14:08;92347.16;;;11.22;56.33
10958;BME280;5531;42.570;23.676;2023-03-19T11:16:54;92343.53;;;11.23;58.20
10958;BME280;5531;42.570;23.676;2023-03-19T11:19:25;92337.09;;;11.25;55.66
10958;BME280;5531;42.570;23.676;2023-03-19T11:22:01;92331.28;;;11.30;55.32
10958;BME280;5531;42.570;23.676;2023-03-19T11:24:36;92321.63;;;11.37;56.28
10958;BME280;5531;42.570;23.676;2023-03-19T11:27:06;92326.09;;;11.43;55.35
10958;BME280;5531;42.570;23.676;2023-03-19T11:29:39;92329.81;;;11.55;54.77
10958;BME280;5531;42.570;23.676;2023-03-19T11:32:22;92320.59;;;11.73;54.93
10958;BME280;5531;42.570;23.676;2023-03-19T11:34:55;92318.03;;;11.86;55.78
10958;BME280;5531;42.570;23.676;2023-03-19T11:37:32;92318.63;;;11.88;56.49
10958;BME280;5531;42.570;23.676;2023-03-19T11:40:15;92308.94;;;11.89;57.89
10958;BME280;5531;42.570;23.676;2023-03-19T11:43:02;92313.25;;;11.97;53.98
10958;BME280;5531;42.570;23.676;2023-03-19T11:45:38;92312.69;;;12.15;54.90
10958;BME280;5531;42.570;23.676;2023-03-19T11:48:33;92305.41;;;12.23;52.77
10958;BME280;5531;42.570;23.676;2023-03-19T11:51:07;92309.09;;;12.36;52.23
10958;BME280;5531;42.570;23.676;2023-03-19T11:53:47;92299.78;;;12.46;52.73
10958;BME280;5531;42.570;23.676;2023-03-19T11:56:30;92295.56;;;12.52;51.51
10958;BME280;5531;42.570;23.676;2023-03-19T11:59:15;92281.22;;;12.61;53.18
10958;BME280;5531;42.570;23.676;2023-03-19T12:04:50;92282.59;;;12.84;51.75
10958;BME280;5531;42.570;23.676;2023-03-19T12:07:32;92281.78;;;12.90;50.65
10958;BME280;5531;42.570;23.676;2023-03-19T12:10:27;92280.59;;;12.99;50.13
10958;BME280;5531;42.570;23.676;2023-03-19T12:13:06;92277.31;;;13.17;51.40
10958;BME280;5531;42.570;23.676;2023-03-19T12:15:46;92277.91;;;13.26;50.44
10958;BME280;5531;42.570;23.676;2023-03-19T12:18:27;92260.28;;;13.40;49.74
10958;BME280;5531;42.570;23.676;2023-03-19T12:21:09;92254.59;;;13.50;49.50
10958;BME280;5531;42.570;23.676;2023-03-19T12:23:55;92260.25;;;13.53;48.53
10958;BME280;5531;42.570;23.676;2023-03-19T12:26:33;92267.84;;;13.75;49.48
10958;BME280;5531;42.570;23.676;2023-03-19T12:29:16;92258.28;;;13.87;50.50
10958;BME280;5531;42.570;23.676;2023-03-19T12:32:06;92255.38;;;14.02;48.60
10958;BME280;5531;42.570;23.676;2023-03-19T12:34:42;92249.75;;;14.24;49.28
10958;BME280;5531;42.570;23.676;2023-03-19T12:37:18;92255.34;;;14.41;49.14
10958;BME280;5531;42.570;23.676;2023-03-19T12:39:55;92247.75;;;14.51;46.05
10958;BME280;5531;42.570;23.676;2023-03-19T12:42:33;92253.66;;;14.46;47.18
10958;BME280;5531;42.570;23.676;2023-03-19T12:45:18;92253.66;;;14.46;47.56
10958;BME280;5531;42.570;23.676;2023-03-19T12:47:54;92246.53;;;14.54;46.02
10958;BME280;5531;42.570;23.676;2023-03-19T12:50:26;92245.75;;;14.46;46.34
10958;BME280;5531;42.570;23.676;2023-03-19T12:52:59;92239.25;;;14.49;45.52
10958;BME280;5531;42.570;23.676;2023-03-19T12:55:36;92240.78;;;14.57;46.13
10958;BME280;5531;42.570;23.676;2023-03-19T12:58:13;92234.19;;;14.47;45.43
10958;BME280;5531;42.570;23.676;2023-03-19T13:00:54;92238.38;;;14.55;44.67
10958;BME280;5531;42.570;23.676;2023-03-19T13:03:31;92236.56;;;14.56;46.33
10958;BME280;5531;42.570;23.676;2023-03-19T13:06:05;92237.56;;;14.55;43.77
10958;BME280;5531;42.570;23.676;2023-03-19T13:08:40;92234.66;;;14.38;45.25
10958;BME280;5531;42.570;23.676;2023-03-19T13:11:14;92224.03;;;14.19;47.13
10958;BME280;5531;42.570;23.676;2023-03-19T13:13:49;92233.63;;;14.14;46.57
10958;BME280;5531;42.570;23.676;2023-03-19T13:16:29;92220.59;;;14.19;45.12
10958;BME280;5531;42.570;23.676;2023-03-19T13:19:09;92223.56;;;14.29;46.17
10958;BME280;5531;42.570;23.676;2023-03-19T13:21:43;92230.78;;;14.40;46.70
10958;BME280;5531;42.570;23.676;2023-03-19T13:24:18;92231.78;;;14.46;45.60
10958;BME280;5531;42.570;23.676;2023-03-19T13:26:50;92223.94;;;14.64;46.02
10958;BME280;5531;42.570;23.676;2023-03-19T13:29:21;92221.78;;;14.80;46.21
10958;BME280;5531;42.570;23.676;2023-03-19T13:31:59;92222.63;;;14.99;43.82
10958;BME280;5531;42.570;23.676;2023-03-19T13:34:31;92221.81;;;14.98;44.27
10958;BME280;5531;42.570;23.676;2023-03-19T13:37:06;92216.97;;;14.95;44.45
10958;BME280;5531;42.570;23.676;2023-03-19T13:39:39;92214.41;;;15.07;45.43